sensor_id;sensor_type;location;lat;lon;timestamp;P1;durP1;ratioP1;P2;durP2;ratioP2
7683;SDS011;3884;48.616;12.872;2022-12-17T00:02:11;58.40;;;38.37;;
7683;SDS011;3884;48.616;12.872;2022-12-17T00:04:57;57.00;;;37.50;;
7683;SDS011;3884;48.616;12.872;2022-12-17T00:07:41;61.27;;;38.50;;
7683;SDS011;3884;48.616;12.872;2022-12-17T00:10:26;59.43;;;37.60;;
7683;SDS011;3884;48.616;12.872;2022-12-17T00:13:16;57.03;;;37.83;;
7683;SDS011;3884;48.616;12.872;2022-12-17T00:16:01;57.40;;;38.53;;
7683;SDS011;3884;48.616;12.872;2022-12-17T00:18:46;58.63;;;36.70;;
7683;SDS011;3884;48.616;12.872;2022-12-17T00:21:32;57.97;;;38.20;;
7683;SDS011;3884;48.616;12.872;2022-12-17T00:24:16;56.03;;;37.37;;
7683;SDS011;3884;48.616;12.872;2022-12-17T00:27:00;58.17;;;36.63;;
7683;SDS011;3884;48.616;12.872;2022-12-17T00:29:44;58.23;;;37.63;;
7683;SDS011;3884;48.616;12.872;2022-12-17T00:32:29;60.23;;;37.27;;
7683;SDS011;3884;48.616;12.872;2022-12-17T00:35:13;55.27;;;37.57;;
7683;SDS011;3884;48.616;12.872;2022-12-17T00:37:59;66.50;;;43.30;;
7683;SDS011;3884;48.616;12.872;2022-12-17T00:40:45;57.97;;;37.30;;
7683;SDS011;3884;48.616;12.872;2022-12-17T00:43:33;59.40;;;38.63;;
7683;SDS011;3884;48.616;12.872;2022-12-17T00:46:18;59.60;;;37.67;;
7683;SDS011;3884;48.616;12.872;2022-12-17T00:49:03;60.23;;;39.00;;
7683;SDS011;3884;48.616;12.872;2022-12-17T00:51:47;58.57;;;38.23;;
7683;SDS011;3884;48.616;12.872;2022-12-17T00:54:33;57.57;;;38.77;;
7683;SDS011;3884;48.616;12.872;2022-12-17T00:57:17;58.17;;;39.77;;
7683;SDS011;3884;48.616;12.872;2022-12-17T01:00:09;58.97;;;39.03;;
7683;SDS011;3884;48.616;12.872;2022-12-17T01:03:02;58.57;;;37.87;;
7683;SDS011;3884;48.616;12.872;2022-12-17T01:05:47;61.00;;;38.83;;
7683;SDS011;3884;48.616;12.872;2022-12-17T01:08:31;55.65;;;36.35;;
7683;SDS011;3884;48.616;12.872;2022-12-17T01:11:17;56.83;;;37.03;;
7683;SDS011;3884;48.616;12.872;2022-12-17T01:14:02;58.13;;;39.00;;
7683;SDS011;3884;48.616;12.872;2022-12-17T01:16:46;60.93;;;37.87;;
7683;SDS011;3884;48.616;12.872;2022-12-17T01:19:31;58.03;;;38.13;;
7683;SDS011;3884;48.616;12.872;2022-12-17T01:22:15;59.47;;;39.73;;
7683;SDS011;3884;48.616;12.872;2022-12-17T01:25:00;60.50;;;40.03;;
7683;SDS011;3884;48.616;12.872;2022-12-17T01:27:48;60.43;;;38.90;;
7683;SDS011;3884;48.616;12.872;2022-12-17T01:30:34;61.50;;;38.83;;
7683;SDS011;3884;48.616;12.872;2022-12-17T01:33:18;60.70;;;38.60;;
7683;SDS011;3884;48.616;12.872;2022-12-17T01:36:03;62.80;;;39.57;;
7683;SDS011;3884;48.616;12.872;2022-12-17T01:38:47;59.83;;;40.33;;
7683;SDS011;3884;48.616;12.872;2022-12-17T01:41:31;61.13;;;39.87;;
7683;SDS011;3884;48.616;12.872;2022-12-17T01:47:36;62.03;;;41.63;;
7683;SDS011;3884;48.616;12.872;2022-12-17T01:50:23;62.47;;;39.93;;
7683;SDS011;3884;48.616;12.872;2022-12-17T01:53:09;55.67;;;37.93;;
7683;SDS011;3884;48.616;12.872;2022-12-17T01:55:56;63.10;;;39.60;;
7683;SDS011;3884;48.616;12.872;2022-12-17T01:58:41;60.57;;;38.03;;
7683;SDS011;3884;48.616;12.872;2022-12-17T02:01:28;60.77;;;39.90;;
7683;SDS011;3884;48.616;12.872;2022-12-17T02:04:13;61.50;;;40.67;;
7683;SDS011;3884;48.616;12.872;2022-12-17T02:07:10;61.33;;;40.07;;
7683;SDS011;3884;48.616;12.872;2022-12-17T02:10:06;61.37;;;39.83;;
7683;SDS011;3884;48.616;12.872;2022-12-17T02:13:01;61.30;;;41.10;;
7683;SDS011;3884;48.616;12.872;2022-12-17T02:15:55;62.10;;;39.33;;
7683;SDS011;3884;48.616;12.872;2022-12-17T02:18:49;59.03;;;41.77;;
7683;SDS011;3884;48.616;12.872;2022-12-17T02:21:36;61.75;;;40.45;;
7683;SDS011;3884;48.616;12.872;2022-12-17T02:24:24;59.20;;;39.57;;
7683;SDS011;3884;48.616;12.872;2022-12-17T02:27:18;63.77;;;40.00;;
7683;SDS011;3884;48.616;12.872;2022-12-17T02:30:07;56.57;;;39.43;;
7683;SDS011;3884;48.616;12.872;2022-12-17T02:32:52;57.13;;;38.13;;
7683;SDS011;3884;48.616;12.872;2022-12-17T02:35:43;57.77;;;39.83;;
7683;SDS011;3884;48.616;12.872;2022-12-17T02:38:31;60.83;;;40.37;;
7683;SDS011;3884;48.616;12.872;2022-12-17T02:41:17;57.77;;;38.60;;
7683;SDS011;3884;48.616;12.872;2022-12-17T02:44:08;58.73;;;39.20;;
7683;SDS011;3884;48.616;12.872;2022-12-17T02:46:55;55.67;;;37.25;;
7683;SDS011;3884;48.616;12.872;2022-12-17T02:49:42;59.33;;;38.53;;
7683;SDS011;3884;48.616;12.872;2022-12-17T02:52:27;57.43;;;39.40;;
7683;SDS011;3884;48.616;12.872;2022-12-17T02:55:14;59.27;;;39.50;;
7683;SDS011;3884;48.616;12.872;2022-12-17T02:57:58;58.73;;;39.10;;
7683;SDS011;3884;48.616;12.872;2022-12-17T03:00:44;56.40;;;37.77;;
7683;SDS011;3884;48.616;12.872;2022-12-17T03:03:29;61.00;;;39.77;;
7683;SDS011;3884;48.616;12.872;2022-12-17T03:06:14;61.30;;;41.23;;
7683;SDS011;3884;48.616;12.872;2022-12-17T03:08:58;60.80;;;41.53;;
7683;SDS011;3884;48.616;12.872;2022-12-17T03:11:42;58.60;;;39.13;;
7683;SDS011;3884;48.616;12.872;2022-12-17T03:14:27;58.50;;;39.77;;
7683;SDS011;3884;48.616;12.872;2022-12-17T03:17:13;57.63;;;37.87;;
7683;SDS011;3884;48.616;12.872;2022-12-17T03:19:57;59.30;;;39.13;;
7683;SDS011;3884;48.616;12.872;2022-12-17T03:22:47;57.60;;;38.83;;
7683;SDS011;3884;48.616;12.872;2022-12-17T03:25:31;62.77;;;40.67;;
7683;SDS011;3884;48.616;12.872;2022-12-17T03:28:16;64.00;;;41.00;;
7683;SDS011;3884;48.616;12.872;2022-12-17T03:31:00;58.70;;;39.43;;
7683;SDS011;3884;48.616;12.872;2022-12-17T03:33:46;64.10;;;41.03;;
7683;SDS011;3884;48.616;12.872;2022-12-17T03:36:30;59.63;;;40.73;;
7683;SDS011;3884;48.616;12.872;2022-12-17T03:39:15;61.90;;;40.83;;
7683;SDS011;3884;48.616;12.872;2022-12-17T03:41:59;62.40;;;42.22;;
7683;SDS011;3884;48.616;12.872;2022-12-17T03:44:55;66.57;;;41.60;;
7683;SDS011;3884;48.616;12.872;2022-12-17T03:47:40;62.03;;;41.10;;
7683;SDS011;3884;48.616;12.872;2022-12-17T03:50:25;62.10;;;41.03;;
7683;SDS011;3884;48.616;12.872;2022-12-17T03:53:10;62.37;;;41.57;;
7683;SDS011;3884;48.616;12.872;2022-12-17T03:55:54;60.23;;;38.77;;
7683;SDS011;3884;48.616;12.872;2022-12-17T03:58:39;63.10;;;43.40;;
7683;SDS011;3884;48.616;12.872;2022-12-17T04:01:23;58.70;;;39.33;;
7683;SDS011;3884;48.616;12.872;2022-12-17T04:04:19;64.00;;;42.70;;
7683;SDS011;3884;48.616;12.872;2022-12-17T04:07:05;65.97;;;43.03;;
7683;SDS011;3884;48.616;12.872;2022-12-17T04:09:49;62.63;;;42.37;;
7683;SDS011;3884;48.616;12.872;2022-12-17T04:12:34;60.70;;;40.33;;
7683;SDS011;3884;48.616;12.872;2022-12-17T04:15:18;65.40;;;41.40;;
7683;SDS011;3884;48.616;12.872;2022-12-17T04:18:03;63.10;;;40.97;;
7683;SDS011;3884;48.616;12.872;2022-12-17T04:20:44;64.70;;;41.63;;
7683;SDS011;3884;48.616;12.872;2022-12-17T04:23:30;63.87;;;41.53;;
7683;SDS011;3884;48.616;12.872;2022-12-17T04:26:14;61.28;;;42.25;;
7683;SDS011;3884;48.616;12.872;2022-12-17T04:28:58;61.40;;;42.57;;
7683;SDS011;3884;48.616;12.872;2022-12-17T04:31:43;67.33;;;45.20;;
7683;SDS011;3884;48.616;12.872;2022-12-17T04:34:27;62.55;;;43.35;;
7683;SDS011;3884;48.616;12.872;2022-12-17T04:37:12;63.40;;;41.87;;
7683;SDS011;3884;48.616;12.872;2022-12-17T04:39:58;65.40;;;43.70;;
7683;SDS011;3884;48.616;12.872;2022-12-17T04:42:42;63.25;;;43.50;;
7683;SDS011;3884;48.616;12.872;2022-12-17T04:45:27;63.30;;;41.97;;
7683;SDS011;3884;48.616;12.872;2022-12-17T04:48:11;65.03;;;43.40;;
7683;SDS011;3884;48.616;12.872;2022-12-17T04:50:56;65.87;;;43.13;;
7683;SDS011;3884;48.616;12.872;2022-12-17T04:53:41;65.50;;;44.17;;
7683;SDS011;3884;48.616;12.872;2022-12-17T04:56:26;61.97;;;42.20;;
7683;SDS011;3884;48.616;12.872;2022-12-17T04:59:11;63.40;;;43.05;;
7683;SDS011;3884;48.616;12.872;2022-12-17T05:01:52;62.20;;;44.15;;
7683;SDS011;3884;48.616;12.872;2022-12-17T05:04:37;67.97;;;44.67;;
7683;SDS011;3884;48.616;12.872;2022-12-17T05:07:21;64.93;;;44.17;;
7683;SDS011;3884;48.616;12.872;2022-12-17T05:10:06;60.28;;;42.75;;
7683;SDS011;3884;48.616;12.872;2022-12-17T05:12:56;66.63;;;43.73;;
7683;SDS011;3884;48.616;12.872;2022-12-17T05:15:41;66.93;;;45.00;;
7683;SDS011;3884;48.616;12.872;2022-12-17T05:18:25;63.13;;;44.33;;
7683;SDS011;3884;48.616;12.872;2022-12-17T05:21:10;60.15;;;42.45;;
7683;SDS011;3884;48.616;12.872;2022-12-17T05:23:54;63.13;;;44.73;;
7683;SDS011;3884;48.616;12.872;2022-12-17T05:26:39;64.30;;;43.07;;
7683;SDS011;3884;48.616;12.872;2022-12-17T05:29:25;64.60;;;44.22;;
7683;SDS011;3884;48.616;12.872;2022-12-17T05:32:09;67.90;;;44.45;;
7683;SDS011;3884;48.616;12.872;2022-12-17T05:34:53;62.92;;;44.00;;
7683;SDS011;3884;48.616;12.872;2022-12-17T05:37:34;62.03;;;43.27;;
7683;SDS011;3884;48.616;12.872;2022-12-17T05:40:19;59.00;;;42.17;;
7683;SDS011;3884;48.616;12.872;2022-12-17T05:43:04;63.27;;;42.63;;
7683;SDS011;3884;48.616;12.872;2022-12-17T05:45:51;64.20;;;44.72;;
7683;SDS011;3884;48.616;12.872;2022-12-17T05:48:35;64.73;;;43.97;;
7683;SDS011;3884;48.616;12.872;2022-12-17T05:51:19;64.77;;;44.20;;
7683;SDS011;3884;48.616;12.872;2022-12-17T05:54:04;64.65;;;45.78;;
7683;SDS011;3884;48.616;12.872;2022-12-17T05:56:49;69.03;;;45.85;;
7683;SDS011;3884;48.616;12.872;2022-12-17T05:59:35;67.95;;;45.80;;
7683;SDS011;3884;48.616;12.872;2022-12-17T06:02:21;70.10;;;46.47;;
7683;SDS011;3884;48.616;12.872;2022-12-17T06:05:05;74.13;;;47.38;;
7683;SDS011;3884;48.616;12.872;2022-12-17T06:07:50;68.03;;;47.00;;
7683;SDS011;3884;48.616;12.872;2022-12-17T06:10:35;66.75;;;45.05;;
7683;SDS011;3884;48.616;12.872;2022-12-17T06:13:19;66.53;;;46.13;;
7683;SDS011;3884;48.616;12.872;2022-12-17T06:16:04;69.07;;;46.40;;
7683;SDS011;3884;48.616;12.872;2022-12-17T06:18:50;69.53;;;46.78;;
7683;SDS011;3884;48.616;12.872;2022-12-17T06:21:35;63.20;;;45.53;;
7683;SDS011;3884;48.616;12.872;2022-12-17T06:24:18;68.13;;;45.07;;
7683;SDS011;3884;48.616;12.872;2022-12-17T06:27:03;68.30;;;47.22;;
7683;SDS011;3884;48.616;12.872;2022-12-17T06:29:47;67.60;;;45.43;;
7683;SDS011;3884;48.616;12.872;2022-12-17T06:32:46;72.27;;;48.17;;
7683;SDS011;3884;48.616;12.872;2022-12-17T06:35:32;73.78;;;47.65;;
7683;SDS011;3884;48.616;12.872;2022-12-17T06:38:16;74.40;;;49.07;;
7683;SDS011;3884;48.616;12.872;2022-12-17T06:41:01;73.32;;;48.63;;
7683;SDS011;3884;48.616;12.872;2022-12-17T06:43:45;71.78;;;47.20;;
7683;SDS011;3884;48.616;12.872;2022-12-17T06:46:38;71.43;;;46.67;;
7683;SDS011;3884;48.616;12.872;2022-12-17T06:49:23;69.38;;;46.45;;
7683;SDS011;3884;48.616;12.872;2022-12-17T06:52:08;65.95;;;45.20;;
7683;SDS011;3884;48.616;12.872;2022-12-17T06:54:53;65.78;;;46.20;;
7683;SDS011;3884;48.616;12.872;2022-12-17T06:57:37;67.67;;;47.07;;
7683;SDS011;3884;48.616;12.872;2022-12-17T07:00:22;68.65;;;45.08;;
7683;SDS011;3884;48.616;12.872;2022-12-17T07:03:08;69.80;;;46.85;;
7683;SDS011;3884;48.616;12.872;2022-12-17T07:05:54;69.43;;;46.42;;
7683;SDS011;3884;48.616;12.872;2022-12-17T07:08:51;71.80;;;47.87;;
7683;SDS011;3884;48.616;12.872;2022-12-17T07:11:36;69.23;;;46.83;;
7683;SDS011;3884;48.616;12.872;2022-12-17T07:14:20;71.03;;;48.78;;
7683;SDS011;3884;48.616;12.872;2022-12-17T07:17:05;63.90;;;44.90;;
7683;SDS011;3884;48.616;12.872;2022-12-17T07:19:49;66.15;;;45.55;;
7683;SDS011;3884;48.616;12.872;2022-12-17T07:22:33;72.68;;;46.88;;
7683;SDS011;3884;48.616;12.872;2022-12-17T07:25:19;71.70;;;47.75;;
7683;SDS011;3884;48.616;12.872;2022-12-17T07:28:04;71.07;;;47.35;;
7683;SDS011;3884;48.616;12.872;2022-12-17T07:30:49;69.05;;;47.20;;
7683;SDS011;3884;48.616;12.872;2022-12-17T07:33:33;67.43;;;46.70;;
7683;SDS011;3884;48.616;12.872;2022-12-17T07:36:17;67.77;;;46.43;;
7683;SDS011;3884;48.616;12.872;2022-12-17T07:39:02;71.45;;;46.58;;
7683;SDS011;3884;48.616;12.872;2022-12-17T07:41:48;66.63;;;45.75;;
7683;SDS011;3884;48.616;12.872;2022-12-17T07:44:37;70.20;;;47.20;;
7683;SDS011;3884;48.616;12.872;2022-12-17T07:47:22;68.53;;;47.13;;
7683;SDS011;3884;48.616;12.872;2022-12-17T07:50:06;64.30;;;45.37;;
7683;SDS011;3884;48.616;12.872;2022-12-17T07:52:57;64.47;;;44.33;;
7683;SDS011;3884;48.616;12.872;2022-12-17T07:55:42;62.57;;;43.27;;
7683;SDS011;3884;48.616;12.872;2022-12-17T07:58:28;63.90;;;43.17;;
7683;SDS011;3884;48.616;12.872;2022-12-17T08:01:12;62.35;;;43.40;;
7683;SDS011;3884;48.616;12.872;2022-12-17T08:03:57;63.15;;;43.33;;
7683;SDS011;3884;48.616;12.872;2022-12-17T08:06:41;61.47;;;42.80;;
7683;SDS011;3884;48.616;12.872;2022-12-17T08:09:26;62.15;;;42.55;;
7683;SDS011;3884;48.616;12.872;2022-12-17T08:12:10;63.67;;;43.88;;
7683;SDS011;3884;48.616;12.872;2022-12-17T08:14:56;62.47;;;42.70;;
7683;SDS011;3884;48.616;12.872;2022-12-17T08:17:40;63.42;;;41.65;;
7683;SDS011;3884;48.616;12.872;2022-12-17T08:20:25;59.60;;;41.33;;
7683;SDS011;3884;48.616;12.872;2022-12-17T08:23:09;60.47;;;41.22;;
7683;SDS011;3884;48.616;12.872;2022-12-17T08:25:53;60.37;;;42.17;;
7683;SDS011;3884;48.616;12.872;2022-12-17T08:28:38;63.20;;;41.33;;
7683;SDS011;3884;48.616;12.872;2022-12-17T08:31:24;59.40;;;40.90;;
7683;SDS011;3884;48.616;12.872;2022-12-17T08:34:08;62.77;;;39.40;;
7683;SDS011;3884;48.616;12.872;2022-12-17T08:36:52;59.10;;;40.87;;
7683;SDS011;3884;48.616;12.872;2022-12-17T08:39:37;59.37;;;39.57;;
7683;SDS011;3884;48.616;12.872;2022-12-17T08:42:22;58.10;;;40.97;;
7683;SDS011;3884;48.616;12.872;2022-12-17T08:45:06;59.47;;;39.55;;
7683;SDS011;3884;48.616;12.872;2022-12-17T08:48:00;56.55;;;39.22;;
7683;SDS011;3884;48.616;12.872;2022-12-17T08:50:45;58.15;;;39.33;;
7683;SDS011;3884;48.616;12.872;2022-12-17T08:53:30;56.25;;;39.25;;
7683;SDS011;3884;48.616;12.872;2022-12-17T08:56:14;58.58;;;39.08;;
7683;SDS011;3884;48.616;12.872;2022-12-17T08:58:59;57.13;;;39.47;;
7683;SDS011;3884;48.616;12.872;2022-12-17T09:01:43;59.30;;;41.90;;
7683;SDS011;3884;48.616;12.872;2022-12-17T09:04:29;57.08;;;40.03;;
7683;SDS011;3884;48.616;12.872;2022-12-17T09:07:14;59.87;;;40.10;;
7683;SDS011;3884;48.616;12.872;2022-12-17T09:09:58;58.28;;;39.55;;
7683;SDS011;3884;48.616;12.872;2022-12-17T09:12:42;54.20;;;37.83;;
7683;SDS011;3884;48.616;12.872;2022-12-17T09:15:27;60.63;;;39.83;;
7683;SDS011;3884;48.616;12.872;2022-12-17T09:18:10;58.70;;;40.80;;
7683;SDS011;3884;48.616;12.872;2022-12-17T09:20:56;57.63;;;40.17;;
7683;SDS011;3884;48.616;12.872;2022-12-17T09:23:40;56.92;;;37.95;;
7683;SDS011;3884;48.616;12.872;2022-12-17T09:26:25;55.23;;;37.57;;
7683;SDS011;3884;48.616;12.872;2022-12-17T09:29:09;58.83;;;39.17;;
7683;SDS011;3884;48.616;12.872;2022-12-17T09:31:53;59.93;;;40.80;;
7683;SDS011;3884;48.616;12.872;2022-12-17T09:34:38;56.57;;;39.30;;
7683;SDS011;3884;48.616;12.872;2022-12-17T09:37:23;58.37;;;40.10;;
7683;SDS011;3884;48.616;12.872;2022-12-17T09:40:08;59.13;;;44.67;;
7683;SDS011;3884;48.616;12.872;2022-12-17T09:43:00;84.00;;;64.50;;
7683;SDS011;3884;48.616;12.872;2022-12-17T09:45:49;78.33;;;54.93;;
7683;SDS011;3884;48.616;12.872;2022-12-17T09:48:41;83.67;;;60.73;;
7683;SDS011;3884;48.616;12.872;2022-12-17T09:51:33;78.83;;;54.20;;
7683;SDS011;3884;48.616;12.872;2022-12-17T09:54:23;107.23;;;72.00;;
7683;SDS011;3884;48.616;12.872;2022-12-17T09:57:13;92.33;;;59.97;;
7683;SDS011;3884;48.616;12.872;2022-12-17T09:59:58;125.77;;;72.83;;
7683;SDS011;3884;48.616;12.872;2022-12-17T10:02:43;144.80;;;89.87;;
7683;SDS011;3884;48.616;12.872;2022-12-17T10:05:28;88.40;;;55.60;;
7683;SDS011;3884;48.616;12.872;2022-12-17T10:08:14;257.50;;;229.90;;
7683;SDS011;3884;48.616;12.872;2022-12-17T10:11:09;107.07;;;68.97;;
7683;SDS011;3884;48.616;12.872;2022-12-17T10:14:01;169.93;;;106.70;;
7683;SDS011;3884;48.616;12.872;2022-12-17T10:16:46;122.93;;;79.10;;
7683;SDS011;3884;48.616;12.872;2022-12-17T10:19:31;119.50;;;75.23;;
7683;SDS011;3884;48.616;12.872;2022-12-17T10:22:19;99.43;;;63.50;;
7683;SDS011;3884;48.616;12.872;2022-12-17T10:25:04;152.80;;;92.43;;
7683;SDS011;3884;48.616;12.872;2022-12-17T10:27:51;162.87;;;99.90;;
7683;SDS011;3884;48.616;12.872;2022-12-17T10:30:35;105.93;;;66.70;;
7683;SDS011;3884;48.616;12.872;2022-12-17T10:33:20;128.95;;;85.13;;
7683;SDS011;3884;48.616;12.872;2022-12-17T10:36:17;149.40;;;90.95;;
7683;SDS011;3884;48.616;12.872;2022-12-17T10:39:03;149.83;;;92.07;;
7683;SDS011;3884;48.616;12.872;2022-12-17T10:41:48;210.48;;;122.57;;
7683;SDS011;3884;48.616;12.872;2022-12-17T10:44:34;108.45;;;66.63;;
7683;SDS011;3884;48.616;12.872;2022-12-17T10:47:21;85.67;;;54.27;;
7683;SDS011;3884;48.616;12.872;2022-12-17T10:50:08;81.20;;;52.93;;
7683;SDS011;3884;48.616;12.872;2022-12-17T10:52:55;156.40;;;95.40;;
7683;SDS011;3884;48.616;12.872;2022-12-17T10:55:46;133.57;;;81.57;;
7683;SDS011;3884;48.616;12.872;2022-12-17T10:58:32;80.20;;;51.08;;
7683;SDS011;3884;48.616;12.872;2022-12-17T11:01:19;176.35;;;108.82;;
7683;SDS011;3884;48.616;12.872;2022-12-17T11:04:22;125.43;;;83.25;;
7683;SDS011;3884;48.616;12.872;2022-12-17T11:07:09;91.10;;;58.65;;
7683;SDS011;3884;48.616;12.872;2022-12-17T11:09:59;85.13;;;58.27;;
7683;SDS011;3884;48.616;12.872;2022-12-17T11:12:54;108.97;;;76.10;;
7683;SDS011;3884;48.616;12.872;2022-12-17T11:15:42;79.93;;;56.93;;
7683;SDS011;3884;48.616;12.872;2022-12-17T11:18:43;71.17;;;49.47;;
7683;SDS011;3884;48.616;12.872;2022-12-17T11:21:35;90.63;;;65.13;;
7683;SDS011;3884;48.616;12.872;2022-12-17T11:24:24;92.77;;;65.43;;
7683;SDS011;3884;48.616;12.872;2022-12-17T11:27:17;71.60;;;48.60;;
7683;SDS011;3884;48.616;12.872;2022-12-17T11:30:09;66.23;;;46.53;;
7683;SDS011;3884;48.616;12.872;2022-12-17T11:32:58;88.90;;;61.13;;
7683;SDS011;3884;48.616;12.872;2022-12-17T11:35:51;69.50;;;48.33;;
7683;SDS011;3884;48.616;12.872;2022-12-17T11:38:43;62.70;;;42.57;;
7683;SDS011;3884;48.616;12.872;2022-12-17T11:41:33;62.27;;;41.30;;
7683;SDS011;3884;48.616;12.872;2022-12-17T11:44:35;66.23;;;49.53;;
7683;SDS011;3884;48.616;12.872;2022-12-17T11:47:32;74.30;;;53.87;;
7683;SDS011;3884;48.616;12.872;2022-12-17T11:50:26;65.70;;;47.50;;
7683;SDS011;3884;48.616;12.872;2022-12-17T11:53:24;86.83;;;63.30;;
7683;SDS011;3884;48.616;12.872;2022-12-17T11:56:23;89.93;;;68.70;;
7683;SDS011;3884;48.616;12.872;2022-12-17T11:59:13;57.60;;;40.37;;
7683;SDS011;3884;48.616;12.872;2022-12-17T12:02:07;60.67;;;40.23;;
7683;SDS011;3884;48.616;12.872;2022-12-17T12:05:07;72.50;;;49.63;;
7683;SDS011;3884;48.616;12.872;2022-12-17T12:08:01;70.63;;;50.77;;
7683;SDS011;3884;48.616;12.872;2022-12-17T12:10:54;55.80;;;39.97;;
7683;SDS011;3884;48.616;12.872;2022-12-17T12:13:46;88.33;;;61.53;;
7683;SDS011;3884;48.616;12.872;2022-12-17T12:16:39;81.87;;;57.33;;
7683;SDS011;3884;48.616;12.872;2022-12-17T12:19:33;82.03;;;55.93;;
7683;SDS011;3884;48.616;12.872;2022-12-17T12:22:26;49.07;;;32.70;;
7683;SDS011;3884;48.616;12.872;2022-12-17T12:25:24;47.97;;;33.27;;
7683;SDS011;3884;48.616;12.872;2022-12-17T12:28:23;47.00;;;32.60;;
7683;SDS011;3884;48.616;12.872;2022-12-17T12:31:18;49.50;;;33.80;;
7683;SDS011;3884;48.616;12.872;2022-12-17T12:34:18;64.00;;;42.23;;
7683;SDS011;3884;48.616;12.872;2022-12-17T12:37:02;108.47;;;68.27;;
7683;SDS011;3884;48.616;12.872;2022-12-17T12:39:48;104.60;;;62.37;;
7683;SDS011;3884;48.616;12.872;2022-12-17T12:42:40;79.60;;;53.40;;
7683;SDS011;3884;48.616;12.872;2022-12-17T12:45:32;62.80;;;41.90;;
7683;SDS011;3884;48.616;12.872;2022-12-17T12:48:28;61.00;;;40.50;;
7683;SDS011;3884;48.616;12.872;2022-12-17T12:51:21;62.53;;;39.37;;
7683;SDS011;3884;48.616;12.872;2022-12-17T12:54:24;51.10;;;33.67;;
7683;SDS011;3884;48.616;12.872;2022-12-17T12:57:27;44.77;;;30.90;;
7683;SDS011;3884;48.616;12.872;2022-12-17T13:00:20;53.83;;;34.40;;
7683;SDS011;3884;48.616;12.872;2022-12-17T13:03:08;46.70;;;32.07;;
7683;SDS011;3884;48.616;12.872;2022-12-17T13:06:02;55.03;;;35.97;;
7683;SDS011;3884;48.616;12.872;2022-12-17T13:08:29;50.33;;;33.70;;
7683;SDS011;3884;48.616;12.872;2022-12-17T13:10:56;49.00;;;33.17;;
7683;SDS011;3884;48.616;12.872;2022-12-17T13:13:38;43.87;;;30.13;;
7683;SDS011;3884;48.616;12.872;2022-12-17T13:16:23;50.93;;;32.20;;
7683;SDS011;3884;48.616;12.872;2022-12-17T13:19:01;51.37;;;36.07;;
7683;SDS011;3884;48.616;12.872;2022-12-17T13:21:29;47.50;;;32.30;;
7683;SDS011;3884;48.616;12.872;2022-12-17T13:23:56;46.77;;;31.53;;
7683;SDS011;3884;48.616;12.872;2022-12-17T13:26:29;44.77;;;31.00;;
7683;SDS011;3884;48.616;12.872;2022-12-17T13:29:26;46.53;;;31.30;;
7683;SDS011;3884;48.616;12.872;2022-12-17T13:31:59;44.07;;;30.73;;
7683;SDS011;3884;48.616;12.872;2022-12-17T13:34:35;46.17;;;30.97;;
7683;SDS011;3884;48.616;12.872;2022-12-17T13:37:11;44.53;;;30.97;;
7683;SDS011;3884;48.616;12.872;2022-12-17T13:39:46;47.50;;;32.27;;
7683;SDS011;3884;48.616;12.872;2022-12-17T13:42:22;46.17;;;32.17;;
7683;SDS011;3884;48.616;12.872;2022-12-17T13:44:53;46.97;;;31.87;;
7683;SDS011;3884;48.616;12.872;2022-12-17T13:47:22;59.10;;;39.63;;
7683;SDS011;3884;48.616;12.872;2022-12-17T13:49:52;64.67;;;43.67;;
7683;SDS011;3884;48.616;12.872;2022-12-17T13:52:20;51.40;;;33.97;;
7683;SDS011;3884;48.616;12.872;2022-12-17T13:54:49;47.43;;;31.30;;
7683;SDS011;3884;48.616;12.872;2022-12-17T13:57:18;46.33;;;30.33;;
7683;SDS011;3884;48.616;12.872;2022-12-17T13:59:48;42.67;;;29.13;;
7683;SDS011;3884;48.616;12.872;2022-12-17T14:02:21;45.67;;;30.97;;
7683;SDS011;3884;48.616;12.872;2022-12-17T14:04:51;45.03;;;30.67;;
7683;SDS011;3884;48.616;12.872;2022-12-17T14:07:18;49.90;;;31.27;;
7683;SDS011;3884;48.616;12.872;2022-12-17T14:09:46;46.40;;;32.20;;
7683;SDS011;3884;48.616;12.872;2022-12-17T14:12:14;50.80;;;34.27;;
7683;SDS011;3884;48.616;12.872;2022-12-17T14:14:48;47.60;;;31.80;;
7683;SDS011;3884;48.616;12.872;2022-12-17T14:17:21;45.67;;;31.50;;
7683;SDS011;3884;48.616;12.872;2022-12-17T14:19:53;45.30;;;31.17;;
7683;SDS011;3884;48.616;12.872;2022-12-17T14:22:26;44.00;;;29.17;;
7683;SDS011;3884;48.616;12.872;2022-12-17T14:25:00;42.00;;;29.03;;
7683;SDS011;3884;48.616;12.872;2022-12-17T14:27:30;51.93;;;36.43;;
7683;SDS011;3884;48.616;12.872;2022-12-17T14:29:58;46.07;;;32.27;;
7683;SDS011;3884;48.616;12.872;2022-12-17T14:32:29;45.80;;;32.90;;
7683;SDS011;3884;48.616;12.872;2022-12-17T14:34:59;44.63;;;31.67;;
7683;SDS011;3884;48.616;12.872;2022-12-17T14:37:27;46.47;;;31.80;;
7683;SDS011;3884;48.616;12.872;2022-12-17T14:39:57;45.93;;;32.17;;
7683;SDS011;3884;48.616;12.872;2022-12-17T14:42:27;44.43;;;30.80;;
7683;SDS011;3884;48.616;12.872;2022-12-17T14:44:57;41.33;;;28.83;;
7683;SDS011;3884;48.616;12.872;2022-12-17T14:47:25;43.77;;;27.90;;
7683;SDS011;3884;48.616;12.872;2022-12-17T14:49:55;46.45;;;30.63;;
7683;SDS011;3884;48.616;12.872;2022-12-17T14:52:33;46.33;;;31.77;;
7683;SDS011;3884;48.616;12.872;2022-12-17T14:58:14;47.43;;;33.00;;
7683;SDS011;3884;48.616;12.872;2022-12-17T15:00:46;43.57;;;32.10;;
7683;SDS011;3884;48.616;12.872;2022-12-17T15:03:17;44.47;;;30.70;;
7683;SDS011;3884;48.616;12.872;2022-12-17T15:05:49;46.97;;;32.50;;
7683;SDS011;3884;48.616;12.872;2022-12-17T15:08:18;44.83;;;31.40;;
7683;SDS011;3884;48.616;12.872;2022-12-17T15:10:46;46.33;;;32.40;;
7683;SDS011;3884;48.616;12.872;2022-12-17T15:13:12;53.03;;;36.05;;
7683;SDS011;3884;48.616;12.872;2022-12-17T15:15:39;90.65;;;63.67;;
7683;SDS011;3884;48.616;12.872;2022-12-17T15:18:07;72.47;;;47.65;;
7683;SDS011;3884;48.616;12.872;2022-12-17T15:20:37;57.22;;;39.83;;
7683;SDS011;3884;48.616;12.872;2022-12-17T15:23:07;62.92;;;42.58;;
7683;SDS011;3884;48.616;12.872;2022-12-17T15:25:39;367.17;;;248.25;;
7683;SDS011;3884;48.616;12.872;2022-12-17T15:28:06;323.40;;;253.70;;
7683;SDS011;3884;48.616;12.872;2022-12-17T15:30:34;287.52;;;242.80;;
7683;SDS011;3884;48.616;12.872;2022-12-17T15:33:01;93.03;;;70.78;;
7683;SDS011;3884;48.616;12.872;2022-12-17T15:35:28;58.92;;;41.80;;
7683;SDS011;3884;48.616;12.872;2022-12-17T15:37:55;53.88;;;39.50;;
7683;SDS011;3884;48.616;12.872;2022-12-17T15:40:23;50.35;;;34.88;;
7683;SDS011;3884;48.616;12.872;2022-12-17T15:42:50;47.17;;;32.92;;
7683;SDS011;3884;48.616;12.872;2022-12-17T15:45:35;51.08;;;33.45;;
7683;SDS011;3884;48.616;12.872;2022-12-17T15:48:02;49.65;;;33.28;;
7683;SDS011;3884;48.616;12.872;2022-12-17T15:50:29;50.17;;;34.10;;
7683;SDS011;3884;48.616;12.872;2022-12-17T15:52:56;45.95;;;32.58;;
7683;SDS011;3884;48.616;12.872;2022-12-17T15:55:25;46.65;;;31.77;;
7683;SDS011;3884;48.616;12.872;2022-12-17T15:57:52;47.20;;;32.60;;
7683;SDS011;3884;48.616;12.872;2022-12-17T16:00:19;50.00;;;34.50;;
7683;SDS011;3884;48.616;12.872;2022-12-17T16:02:46;50.00;;;34.60;;
7683;SDS011;3884;48.616;12.872;2022-12-17T16:05:14;49.05;;;32.72;;
7683;SDS011;3884;48.616;12.872;2022-12-17T16:07:42;46.20;;;30.90;;
7683;SDS011;3884;48.616;12.872;2022-12-17T16:10:09;50.65;;;34.67;;
7683;SDS011;3884;48.616;12.872;2022-12-17T16:12:39;50.58;;;34.22;;
7683;SDS011;3884;48.616;12.872;2022-12-17T16:15:06;70.57;;;44.97;;
7683;SDS011;3884;48.616;12.872;2022-12-17T16:17:34;91.25;;;55.88;;